Terminal Aerodrome Forecast
Issued by NWS

Current Version | Previous Version | Text Only | Print | Product List | Glossary Off
Versions: 1 2 3 4 5 6 7 8 9 10 11 12 13 14 15 16 17 18 19 20

000
FTUS41 KILN 281700
TAFLUK
TAF
KLUK 281738Z 2818/0118 11007KT P6SM OVC100
     FM282100 09008KT P6SM SCT030 BKN060
     FM010300 10005KT P6SM -SN BKN030 OVC050
     FM010500 12004KT 3SM -SN OVC018
      TEMPO 0107/0109 1/2SM SN OVC010
     FM010900 15004KT 2SM -RAPLSN SCT010 OVC020
     FM011200 18005KT 5SM -RA OVC028
      TEMPO 0114/0118 2SM -RA OVC015=

USA.gov is the U.S. government's official web portal to all federal, state and local government web resources and services.